sensor_id;sensor_type;location;lat;lon;timestamp;P1;durP1;ratioP1;P2;durP2;ratioP2
61962;SDS011;47927;42.646;23.096;2022-10-31T00:01:10;5.55;;;2.47;;
61962;SDS011;47927;42.646;23.096;2022-10-31T00:03:43;5.72;;;2.78;;
61962;SDS011;47927;42.646;23.096;2022-10-31T00:06:09;11.70;;;3.30;;
61962;SDS011;47927;42.646;23.096;2022-10-31T00:08:35;4.30;;;1.90;;
61962;SDS011;47927;42.646;23.096;2022-10-31T00:11:00;6.85;;;2.60;;
61962;SDS011;47927;42.646;23.096;2022-10-31T00:13:26;9.93;;;3.08;;
61962;SDS011;47927;42.646;23.096;2022-10-31T00:15:52;5.80;;;2.83;;
61962;SDS011;47927;42.646;23.096;2022-10-31T00:18:17;5.90;;;2.95;;
61962;SDS011;47927;42.646;23.096;2022-10-31T00:20:43;10.05;;;3.10;;
61962;SDS011;47927;42.646;23.096;2022-10-31T00:23:08;7.50;;;2.58;;
61962;SDS011;47927;42.646;23.096;2022-10-31T00:25:36;9.68;;;3.17;;
61962;SDS011;47927;42.646;23.096;2022-10-31T00:28:05;7.22;;;3.17;;
61962;SDS011;47927;42.646;23.096;2022-10-31T00:30:31;6.45;;;2.78;;
61962;SDS011;47927;42.646;23.096;2022-10-31T00:32:57;6.68;;;3.10;;
61962;SDS011;47927;42.646;23.096;2022-10-31T00:35:23;5.82;;;2.85;;
61962;SDS011;47927;42.646;23.096;2022-10-31T00:37:49;8.45;;;3.42;;
61962;SDS011;47927;42.646;23.096;2022-10-31T00:40:15;6.45;;;3.03;;
61962;SDS011;47927;42.646;23.096;2022-10-31T00:42:40;7.63;;;3.40;;
61962;SDS011;47927;42.646;23.096;2022-10-31T00:45:07;9.73;;;3.95;;
61962;SDS011;47927;42.646;23.096;2022-10-31T00:47:34;6.47;;;2.95;;
61962;SDS011;47927;42.646;23.096;2022-10-31T00:49:59;9.40;;;3.92;;
61962;SDS011;47927;42.646;23.096;2022-10-31T00:52:25;12.32;;;4.82;;
61962;SDS011;47927;42.646;23.096;2022-10-31T00:54:50;7.68;;;3.08;;
61962;SDS011;47927;42.646;23.096;2022-10-31T00:57:16;11.82;;;4.03;;
61962;SDS011;47927;42.646;23.096;2022-10-31T00:59:42;8.57;;;3.40;;
61962;SDS011;47927;42.646;23.096;2022-10-31T01:02:08;6.60;;;3.28;;
61962;SDS011;47927;42.646;23.096;2022-10-31T01:04:33;8.05;;;4.20;;
61962;SDS011;47927;42.646;23.096;2022-10-31T01:06:59;8.95;;;4.47;;
61962;SDS011;47927;42.646;23.096;2022-10-31T01:09:24;10.30;;;4.75;;
61962;SDS011;47927;42.646;23.096;2022-10-31T01:11:50;8.38;;;3.75;;
61962;SDS011;47927;42.646;23.096;2022-10-31T01:14:16;6.72;;;3.67;;
61962;SDS011;47927;42.646;23.096;2022-10-31T01:16:41;9.18;;;3.00;;
61962;SDS011;47927;42.646;23.096;2022-10-31T01:19:07;7.30;;;2.90;;
61962;SDS011;47927;42.646;23.096;2022-10-31T01:21:32;7.60;;;3.38;;
61962;SDS011;47927;42.646;23.096;2022-10-31T01:23:58;14.00;;;3.30;;
61962;SDS011;47927;42.646;23.096;2022-10-31T01:26:28;9.27;;;2.95;;
61962;SDS011;47927;42.646;23.096;2022-10-31T01:29:00;5.55;;;2.50;;
61962;SDS011;47927;42.646;23.096;2022-10-31T01:31:29;8.73;;;2.42;;
61962;SDS011;47927;42.646;23.096;2022-10-31T01:33:57;11.18;;;2.58;;
61962;SDS011;47927;42.646;23.096;2022-10-31T01:38:55;5.03;;;1.90;;
61962;SDS011;47927;42.646;23.096;2022-10-31T01:41:23;4.20;;;1.92;;
61962;SDS011;47927;42.646;23.096;2022-10-31T01:46:29;4.18;;;2.20;;
61962;SDS011;47927;42.646;23.096;2022-10-31T01:48:59;4.97;;;1.55;;
61962;SDS011;47927;42.646;23.096;2022-10-31T01:51:28;5.68;;;2.30;;
61962;SDS011;47927;42.646;23.096;2022-10-31T01:53:59;4.97;;;1.95;;
61962;SDS011;47927;42.646;23.096;2022-10-31T01:56:27;4.55;;;2.00;;
61962;SDS011;47927;42.646;23.096;2022-10-31T01:58:53;7.45;;;2.55;;
61962;SDS011;47927;42.646;23.096;2022-10-31T02:01:21;6.93;;;2.35;;
61962;SDS011;47927;42.646;23.096;2022-10-31T02:03:47;5.80;;;2.40;;
61962;SDS011;47927;42.646;23.096;2022-10-31T02:06:18;5.43;;;2.20;;
61962;SDS011;47927;42.646;23.096;2022-10-31T02:08:52;5.35;;;1.90;;
61962;SDS011;47927;42.646;23.096;2022-10-31T02:11:20;3.85;;;2.00;;
61962;SDS011;47927;42.646;23.096;2022-10-31T02:13:45;4.93;;;2.28;;
61962;SDS011;47927;42.646;23.096;2022-10-31T02:16:12;4.60;;;2.10;;
61962;SDS011;47927;42.646;23.096;2022-10-31T02:18:38;4.43;;;1.98;;
61962;SDS011;47927;42.646;23.096;2022-10-31T02:40:21;6.30;;;2.15;;
61962;SDS011;47927;42.646;23.096;2022-10-31T02:43:21;6.47;;;2.42;;
61962;SDS011;47927;42.646;23.096;2022-10-31T02:48:33;4.63;;;1.92;;
61962;SDS011;47927;42.646;23.096;2022-10-31T02:51:04;8.60;;;2.38;;
61962;SDS011;47927;42.646;23.096;2022-10-31T02:53:34;5.03;;;1.88;;
61962;SDS011;47927;42.646;23.096;2022-10-31T02:58:58;5.17;;;2.17;;
61962;SDS011;47927;42.646;23.096;2022-10-31T03:01:33;6.72;;;2.17;;
61962;SDS011;47927;42.646;23.096;2022-10-31T03:04:32;4.95;;;2.20;;
61962;SDS011;47927;42.646;23.096;2022-10-31T03:10:04;6.90;;;2.70;;
61962;SDS011;47927;42.646;23.096;2022-10-31T03:13:01;8.13;;;2.40;;
61962;SDS011;47927;42.646;23.096;2022-10-31T03:15:34;9.15;;;3.10;;
61962;SDS011;47927;42.646;23.096;2022-10-31T03:18:28;9.48;;;2.50;;
61962;SDS011;47927;42.646;23.096;2022-10-31T03:23:28;7.43;;;2.90;;
61962;SDS011;47927;42.646;23.096;2022-10-31T03:25:57;6.15;;;2.65;;
61962;SDS011;47927;42.646;23.096;2022-10-31T03:28:28;5.55;;;2.70;;
61962;SDS011;47927;42.646;23.096;2022-10-31T03:30:57;6.60;;;3.05;;
61962;SDS011;47927;42.646;23.096;2022-10-31T03:33:26;6.20;;;2.95;;
61962;SDS011;47927;42.646;23.096;2022-10-31T03:35:57;6.13;;;2.47;;
61962;SDS011;47927;42.646;23.096;2022-10-31T03:38:25;7.78;;;3.05;;
61962;SDS011;47927;42.646;23.096;2022-10-31T03:40:52;4.93;;;2.47;;
61962;SDS011;47927;42.646;23.096;2022-10-31T03:43:24;6.28;;;2.70;;
61962;SDS011;47927;42.646;23.096;2022-10-31T03:45:53;4.80;;;2.30;;
61962;SDS011;47927;42.646;23.096;2022-10-31T03:48:20;5.40;;;2.72;;
61962;SDS011;47927;42.646;23.096;2022-10-31T03:53:45;4.80;;;2.50;;
61962;SDS011;47927;42.646;23.096;2022-10-31T03:56:33;7.90;;;2.70;;
61962;SDS011;47927;42.646;23.096;2022-10-31T03:59:05;11.77;;;2.63;;
61962;SDS011;47927;42.646;23.096;2022-10-31T04:01:36;4.47;;;2.33;;
61962;SDS011;47927;42.646;23.096;2022-10-31T04:04:06;6.28;;;2.85;;
61962;SDS011;47927;42.646;23.096;2022-10-31T04:06:33;8.82;;;3.05;;
61962;SDS011;47927;42.646;23.096;2022-10-31T04:09:02;6.18;;;2.92;;
61962;SDS011;47927;42.646;23.096;2022-10-31T04:11:38;5.45;;;2.30;;
61962;SDS011;47927;42.646;23.096;2022-10-31T04:14:38;13.73;;;3.03;;
61962;SDS011;47927;42.646;23.096;2022-10-31T04:17:07;9.02;;;2.55;;
61962;SDS011;47927;42.646;23.096;2022-10-31T04:19:55;4.90;;;2.05;;
61962;SDS011;47927;42.646;23.096;2022-10-31T04:22:25;6.23;;;2.53;;
61962;SDS011;47927;42.646;23.096;2022-10-31T04:24:51;5.55;;;2.47;;
61962;SDS011;47927;42.646;23.096;2022-10-31T04:27:17;5.53;;;2.60;;
61962;SDS011;47927;42.646;23.096;2022-10-31T04:29:43;8.30;;;2.33;;
61962;SDS011;47927;42.646;23.096;2022-10-31T04:32:08;6.88;;;3.00;;
61962;SDS011;47927;42.646;23.096;2022-10-31T04:34:34;5.75;;;2.50;;
61962;SDS011;47927;42.646;23.096;2022-10-31T04:37:00;6.68;;;2.70;;
61962;SDS011;47927;42.646;23.096;2022-10-31T04:39:26;5.68;;;3.00;;
61962;SDS011;47927;42.646;23.096;2022-10-31T04:42:20;7.13;;;2.70;;
61962;SDS011;47927;42.646;23.096;2022-10-31T04:44:46;6.65;;;2.60;;
61962;SDS011;47927;42.646;23.096;2022-10-31T04:47:13;4.80;;;2.47;;
61962;SDS011;47927;42.646;23.096;2022-10-31T04:49:38;7.20;;;3.22;;
61962;SDS011;47927;42.646;23.096;2022-10-31T04:52:04;6.50;;;2.72;;
61962;SDS011;47927;42.646;23.096;2022-10-31T04:54:30;6.90;;;2.75;;
61962;SDS011;47927;42.646;23.096;2022-10-31T04:57:13;8.27;;;2.70;;
61962;SDS011;47927;42.646;23.096;2022-10-31T04:59:41;5.47;;;2.65;;
61962;SDS011;47927;42.646;23.096;2022-10-31T05:02:07;5.55;;;3.13;;
61962;SDS011;47927;42.646;23.096;2022-10-31T05:04:43;4.80;;;3.00;;
61962;SDS011;47927;42.646;23.096;2022-10-31T05:07:09;9.90;;;2.65;;
61962;SDS011;47927;42.646;23.096;2022-10-31T05:09:34;7.55;;;2.80;;
61962;SDS011;47927;42.646;23.096;2022-10-31T05:12:00;8.35;;;3.20;;
61962;SDS011;47927;42.646;23.096;2022-10-31T05:15:01;5.90;;;2.78;;
61962;SDS011;47927;42.646;23.096;2022-10-31T05:17:45;7.88;;;3.40;;
61962;SDS011;47927;42.646;23.096;2022-10-31T05:20:30;7.35;;;3.35;;
61962;SDS011;47927;42.646;23.096;2022-10-31T05:23:16;7.93;;;3.10;;
61962;SDS011;47927;42.646;23.096;2022-10-31T05:25:41;8.13;;;3.33;;
61962;SDS011;47927;42.646;23.096;2022-10-31T05:28:07;13.05;;;3.53;;
61962;SDS011;47927;42.646;23.096;2022-10-31T05:30:33;20.00;;;4.40;;
61962;SDS011;47927;42.646;23.096;2022-10-31T05:32:59;7.00;;;3.45;;
61962;SDS011;47927;42.646;23.096;2022-10-31T05:35:54;6.60;;;4.18;;
61962;SDS011;47927;42.646;23.096;2022-10-31T05:38:45;10.73;;;3.58;;
61962;SDS011;47927;42.646;23.096;2022-10-31T05:41:19;6.38;;;3.15;;
61962;SDS011;47927;42.646;23.096;2022-10-31T05:43:46;4.75;;;2.75;;
61962;SDS011;47927;42.646;23.096;2022-10-31T05:46:12;7.88;;;2.90;;
61962;SDS011;47927;42.646;23.096;2022-10-31T05:48:56;6.13;;;2.72;;
61962;SDS011;47927;42.646;23.096;2022-10-31T05:51:27;9.32;;;3.35;;
61962;SDS011;47927;42.646;23.096;2022-10-31T05:53:53;5.40;;;3.10;;
61962;SDS011;47927;42.646;23.096;2022-10-31T05:56:20;5.13;;;3.30;;
61962;SDS011;47927;42.646;23.096;2022-10-31T05:58:45;4.75;;;3.08;;
61962;SDS011;47927;42.646;23.096;2022-10-31T06:01:12;8.45;;;3.60;;
61962;SDS011;47927;42.646;23.096;2022-10-31T06:03:37;5.68;;;3.05;;
61962;SDS011;47927;42.646;23.096;2022-10-31T06:06:06;7.40;;;3.45;;
61962;SDS011;47927;42.646;23.096;2022-10-31T06:08:36;9.77;;;3.63;;
61962;SDS011;47927;42.646;23.096;2022-10-31T06:14:03;8.48;;;4.05;;
61962;SDS011;47927;42.646;23.096;2022-10-31T06:16:53;9.13;;;4.05;;
61962;SDS011;47927;42.646;23.096;2022-10-31T06:19:38;9.52;;;3.97;;
61962;SDS011;47927;42.646;23.096;2022-10-31T06:22:04;8.05;;;4.40;;
61962;SDS011;47927;42.646;23.096;2022-10-31T06:24:31;8.35;;;4.18;;
61962;SDS011;47927;42.646;23.096;2022-10-31T06:27:23;9.45;;;4.03;;
61962;SDS011;47927;42.646;23.096;2022-10-31T06:29:49;7.03;;;4.00;;
61962;SDS011;47927;42.646;23.096;2022-10-31T06:32:41;8.13;;;3.63;;
61962;SDS011;47927;42.646;23.096;2022-10-31T06:35:08;6.15;;;3.30;;
61962;SDS011;47927;42.646;23.096;2022-10-31T06:37:34;8.82;;;3.55;;
61962;SDS011;47927;42.646;23.096;2022-10-31T06:40:10;11.23;;;4.28;;
61962;SDS011;47927;42.646;23.096;2022-10-31T06:42:55;5.90;;;3.10;;
61962;SDS011;47927;42.646;23.096;2022-10-31T06:45:22;7.22;;;3.80;;
61962;SDS011;47927;42.646;23.096;2022-10-31T06:48:08;6.95;;;4.70;;
61962;SDS011;47927;42.646;23.096;2022-10-31T06:50:39;6.25;;;4.28;;
61962;SDS011;47927;42.646;23.096;2022-10-31T06:53:05;8.38;;;3.72;;
61962;SDS011;47927;42.646;23.096;2022-10-31T06:55:30;8.43;;;3.97;;
61962;SDS011;47927;42.646;23.096;2022-10-31T06:57:57;8.85;;;4.28;;
61962;SDS011;47927;42.646;23.096;2022-10-31T07:00:24;9.83;;;4.30;;
61962;SDS011;47927;42.646;23.096;2022-10-31T07:03:03;7.72;;;4.13;;
61962;SDS011;47927;42.646;23.096;2022-10-31T07:05:31;7.13;;;4.15;;
61962;SDS011;47927;42.646;23.096;2022-10-31T07:08:01;7.97;;;4.18;;
61962;SDS011;47927;42.646;23.096;2022-10-31T07:10:29;7.55;;;3.90;;
61962;SDS011;47927;42.646;23.096;2022-10-31T07:13:01;7.57;;;4.43;;
61962;SDS011;47927;42.646;23.096;2022-10-31T07:15:35;8.07;;;4.45;;
61962;SDS011;47927;42.646;23.096;2022-10-31T07:18:03;10.50;;;5.13;;
61962;SDS011;47927;42.646;23.096;2022-10-31T07:20:30;11.75;;;5.00;;
61962;SDS011;47927;42.646;23.096;2022-10-31T07:22:56;8.70;;;5.05;;
61962;SDS011;47927;42.646;23.096;2022-10-31T07:25:23;10.93;;;5.20;;
61962;SDS011;47927;42.646;23.096;2022-10-31T07:28:08;10.18;;;4.82;;
61962;SDS011;47927;42.646;23.096;2022-10-31T07:30:34;10.85;;;4.95;;
61962;SDS011;47927;42.646;23.096;2022-10-31T07:33:00;8.10;;;4.18;;
61962;SDS011;47927;42.646;23.096;2022-10-31T07:35:46;7.88;;;3.95;;
61962;SDS011;47927;42.646;23.096;2022-10-31T07:38:14;8.43;;;4.32;;
61962;SDS011;47927;42.646;23.096;2022-10-31T07:40:40;12.45;;;4.53;;
61962;SDS011;47927;42.646;23.096;2022-10-31T07:43:07;9.25;;;5.43;;
61962;SDS011;47927;42.646;23.096;2022-10-31T07:45:52;7.97;;;4.82;;
61962;SDS011;47927;42.646;23.096;2022-10-31T07:48:37;9.52;;;4.93;;
61962;SDS011;47927;42.646;23.096;2022-10-31T07:51:28;13.43;;;6.55;;
61962;SDS011;47927;42.646;23.096;2022-10-31T07:54:13;9.63;;;4.82;;
61962;SDS011;47927;42.646;23.096;2022-10-31T07:56:39;7.63;;;3.75;;
61962;SDS011;47927;42.646;23.096;2022-10-31T07:59:05;11.73;;;5.50;;
61962;SDS011;47927;42.646;23.096;2022-10-31T08:01:49;12.25;;;5.07;;
61962;SDS011;47927;42.646;23.096;2022-10-31T08:04:40;5.20;;;2.92;;
61962;SDS011;47927;42.646;23.096;2022-10-31T08:07:25;5.88;;;2.60;;
61962;SDS011;47927;42.646;23.096;2022-10-31T08:09:58;5.65;;;2.95;;
61962;SDS011;47927;42.646;23.096;2022-10-31T08:12:28;9.48;;;3.20;;
61962;SDS011;47927;42.646;23.096;2022-10-31T08:14:53;7.07;;;3.28;;
61962;SDS011;47927;42.646;23.096;2022-10-31T08:17:19;7.72;;;3.38;;
61962;SDS011;47927;42.646;23.096;2022-10-31T08:19:54;5.03;;;2.65;;
61962;SDS011;47927;42.646;23.096;2022-10-31T08:22:24;5.47;;;2.85;;
61962;SDS011;47927;42.646;23.096;2022-10-31T08:24:50;5.80;;;2.60;;
61962;SDS011;47927;42.646;23.096;2022-10-31T08:27:16;6.18;;;3.40;;
61962;SDS011;47927;42.646;23.096;2022-10-31T08:29:42;4.90;;;2.80;;
61962;SDS011;47927;42.646;23.096;2022-10-31T08:32:07;7.90;;;3.28;;
61962;SDS011;47927;42.646;23.096;2022-10-31T08:34:53;5.15;;;2.65;;
61962;SDS011;47927;42.646;23.096;2022-10-31T08:37:27;5.13;;;2.40;;
61962;SDS011;47927;42.646;23.096;2022-10-31T08:39:54;5.93;;;2.53;;
61962;SDS011;47927;42.646;23.096;2022-10-31T08:42:20;6.60;;;2.90;;
61962;SDS011;47927;42.646;23.096;2022-10-31T08:44:46;5.28;;;2.55;;
61962;SDS011;47927;42.646;23.096;2022-10-31T08:47:12;5.32;;;2.40;;
61962;SDS011;47927;42.646;23.096;2022-10-31T08:49:38;4.38;;;2.35;;
61962;SDS011;47927;42.646;23.096;2022-10-31T08:52:03;5.10;;;2.20;;
61962;SDS011;47927;42.646;23.096;2022-10-31T08:54:33;4.57;;;3.10;;
61962;SDS011;47927;42.646;23.096;2022-10-31T08:57:17;5.97;;;2.50;;
61962;SDS011;47927;42.646;23.096;2022-10-31T08:59:45;4.00;;;2.40;;
61962;SDS011;47927;42.646;23.096;2022-10-31T09:02:33;4.20;;;2.20;;
61962;SDS011;47927;42.646;23.096;2022-10-31T09:05:00;5.80;;;2.03;;
61962;SDS011;47927;42.646;23.096;2022-10-31T09:07:26;5.88;;;2.67;;
61962;SDS011;47927;42.646;23.096;2022-10-31T09:09:53;10.50;;;2.53;;
61962;SDS011;47927;42.646;23.096;2022-10-31T09:12:18;6.47;;;2.53;;
61962;SDS011;47927;42.646;23.096;2022-10-31T09:14:46;5.25;;;2.55;;
61962;SDS011;47927;42.646;23.096;2022-10-31T09:17:24;5.07;;;2.40;;
61962;SDS011;47927;42.646;23.096;2022-10-31T09:20:17;7.05;;;2.65;;
61962;SDS011;47927;42.646;23.096;2022-10-31T09:22:42;4.95;;;2.25;;
61962;SDS011;47927;42.646;23.096;2022-10-31T09:25:08;5.80;;;2.22;;
61962;SDS011;47927;42.646;23.096;2022-10-31T09:27:37;5.70;;;2.42;;
61962;SDS011;47927;42.646;23.096;2022-10-31T09:30:05;4.93;;;2.20;;
61962;SDS011;47927;42.646;23.096;2022-10-31T09:32:32;6.95;;;2.47;;
61962;SDS011;47927;42.646;23.096;2022-10-31T09:34:58;7.90;;;4.13;;
61962;SDS011;47927;42.646;23.096;2022-10-31T09:37:24;4.57;;;2.50;;
61962;SDS011;47927;42.646;23.096;2022-10-31T09:39:50;4.63;;;2.60;;
61962;SDS011;47927;42.646;23.096;2022-10-31T09:42:39;6.57;;;2.83;;
61962;SDS011;47927;42.646;23.096;2022-10-31T09:45:29;7.63;;;2.90;;
61962;SDS011;47927;42.646;23.096;2022-10-31T09:51:33;5.65;;;2.00;;
61962;SDS011;47927;42.646;23.096;2022-10-31T09:54:38;9.98;;;3.65;;
61962;SDS011;47927;42.646;23.096;2022-10-31T09:57:07;6.93;;;2.58;;
61962;SDS011;47927;42.646;23.096;2022-10-31T09:59:39;7.15;;;3.28;;
61962;SDS011;47927;42.646;23.096;2022-10-31T10:02:23;8.45;;;2.72;;
61962;SDS011;47927;42.646;23.096;2022-10-31T10:05:03;7.00;;;2.97;;
61962;SDS011;47927;42.646;23.096;2022-10-31T10:26:50;5.05;;;2.83;;
61962;SDS011;47927;42.646;23.096;2022-10-31T10:32:20;4.88;;;2.60;;
61962;SDS011;47927;42.646;23.096;2022-10-31T10:34:50;6.75;;;2.50;;
61962;SDS011;47927;42.646;23.096;2022-10-31T10:37:30;5.70;;;2.60;;
61962;SDS011;47927;42.646;23.096;2022-10-31T10:42:42;6.43;;;2.53;;
61962;SDS011;47927;42.646;23.096;2022-10-31T10:45:56;6.60;;;2.72;;
61962;SDS011;47927;42.646;23.096;2022-10-31T10:51:23;5.88;;;2.58;;
61962;SDS011;47927;42.646;23.096;2022-10-31T10:56:55;7.28;;;2.83;;
61962;SDS011;47927;42.646;23.096;2022-10-31T10:59:28;7.35;;;2.88;;
61962;SDS011;47927;42.646;23.096;2022-10-31T11:01:57;10.80;;;3.38;;
61962;SDS011;47927;42.646;23.096;2022-10-31T11:04:25;6.40;;;2.80;;
61962;SDS011;47927;42.646;23.096;2022-10-31T11:07:02;8.05;;;3.15;;
61962;SDS011;47927;42.646;23.096;2022-10-31T11:09:32;5.30;;;2.55;;
61962;SDS011;47927;42.646;23.096;2022-10-31T11:12:00;8.23;;;2.53;;
61962;SDS011;47927;42.646;23.096;2022-10-31T11:14:36;7.82;;;2.85;;
61962;SDS011;47927;42.646;23.096;2022-10-31T11:22:27;5.30;;;2.50;;
61962;SDS011;47927;42.646;23.096;2022-10-31T11:24:53;7.32;;;2.70;;
61962;SDS011;47927;42.646;23.096;2022-10-31T11:27:23;5.32;;;2.63;;
61962;SDS011;47927;42.646;23.096;2022-10-31T11:29:50;11.40;;;2.70;;
61962;SDS011;47927;42.646;23.096;2022-10-31T11:32:20;5.50;;;2.45;;
61962;SDS011;47927;42.646;23.096;2022-10-31T11:34:59;7.47;;;2.50;;
61962;SDS011;47927;42.646;23.096;2022-10-31T11:37:29;5.43;;;2.60;;
61962;SDS011;47927;42.646;23.096;2022-10-31T11:40:01;7.47;;;2.20;;
61962;SDS011;47927;42.646;23.096;2022-10-31T11:42:34;5.55;;;2.60;;
61962;SDS011;47927;42.646;23.096;2022-10-31T11:45:06;6.72;;;2.08;;
61962;SDS011;47927;42.646;23.096;2022-10-31T11:47:40;7.68;;;2.58;;
61962;SDS011;47927;42.646;23.096;2022-10-31T11:50:10;6.15;;;2.50;;
61962;SDS011;47927;42.646;23.096;2022-10-31T11:52:43;5.88;;;2.25;;
61962;SDS011;47927;42.646;23.096;2022-10-31T11:57:56;9.30;;;2.40;;
61962;SDS011;47927;42.646;23.096;2022-10-31T12:00:23;7.10;;;1.98;;
61962;SDS011;47927;42.646;23.096;2022-10-31T12:02:49;5.55;;;2.42;;
61962;SDS011;47927;42.646;23.096;2022-10-31T12:05:23;6.25;;;2.58;;
61962;SDS011;47927;42.646;23.096;2022-10-31T12:07:58;12.27;;;2.30;;
61962;SDS011;47927;42.646;23.096;2022-10-31T12:10:25;9.32;;;2.80;;
61962;SDS011;47927;42.646;23.096;2022-10-31T12:15:54;7.15;;;2.90;;
61962;SDS011;47927;42.646;23.096;2022-10-31T12:35:13;8.52;;;3.58;;
61962;SDS011;47927;42.646;23.096;2022-10-31T12:46:08;5.65;;;2.40;;
61962;SDS011;47927;42.646;23.096;2022-10-31T12:59:36;8.73;;;2.78;;
61962;SDS011;47927;42.646;23.096;2022-10-31T13:05:03;6.15;;;2.58;;
61962;SDS011;47927;42.646;23.096;2022-10-31T13:07:37;10.68;;;2.95;;
61962;SDS011;47927;42.646;23.096;2022-10-31T13:13:20;7.55;;;2.58;;
61962;SDS011;47927;42.646;23.096;2022-10-31T13:15:55;6.28;;;2.20;;
61962;SDS011;47927;42.646;23.096;2022-10-31T13:18:26;7.72;;;2.78;;
61962;SDS011;47927;42.646;23.096;2022-10-31T13:20:55;8.35;;;2.38;;
61962;SDS011;47927;42.646;23.096;2022-10-31T13:23:27;9.77;;;2.67;;
61962;SDS011;47927;42.646;23.096;2022-10-31T13:25:55;7.55;;;2.22;;
61962;SDS011;47927;42.646;23.096;2022-10-31T13:28:43;12.40;;;2.75;;
61962;SDS011;47927;42.646;23.096;2022-10-31T13:31:11;6.28;;;2.40;;
61962;SDS011;47927;42.646;23.096;2022-10-31T13:42:07;5.95;;;2.20;;
61962;SDS011;47927;42.646;23.096;2022-10-31T13:44:36;9.07;;;2.03;;
61962;SDS011;47927;42.646;23.096;2022-10-31T13:47:21;7.60;;;2.58;;
61962;SDS011;47927;42.646;23.096;2022-10-31T13:50:18;8.10;;;2.40;;
61962;SDS011;47927;42.646;23.096;2022-10-31T13:52:49;9.80;;;2.38;;
61962;SDS011;47927;42.646;23.096;2022-10-31T13:58:04;10.35;;;2.90;;
61962;SDS011;47927;42.646;23.096;2022-10-31T14:00:44;7.40;;;2.42;;
61962;SDS011;47927;42.646;23.096;2022-10-31T14:03:17;13.15;;;2.53;;
61962;SDS011;47927;42.646;23.096;2022-10-31T14:05:44;7.57;;;2.25;;
61962;SDS011;47927;42.646;23.096;2022-10-31T14:08:18;7.68;;;2.60;;
61962;SDS011;47927;42.646;23.096;2022-10-31T14:10:47;7.53;;;3.45;;
61962;SDS011;47927;42.646;23.096;2022-10-31T14:13:22;5.82;;;2.70;;
61962;SDS011;47927;42.646;23.096;2022-10-31T14:20:56;8.27;;;2.60;;
61962;SDS011;47927;42.646;23.096;2022-10-31T14:23:30;6.63;;;2.60;;
61962;SDS011;47927;42.646;23.096;2022-10-31T14:28:54;10.05;;;3.00;;
61962;SDS011;47927;42.646;23.096;2022-10-31T14:31:51;7.70;;;2.17;;
61962;SDS011;47927;42.646;23.096;2022-10-31T14:37:01;6.38;;;2.08;;
61962;SDS011;47927;42.646;23.096;2022-10-31T14:50:48;9.98;;;2.60;;
61962;SDS011;47927;42.646;23.096;2022-10-31T14:53:36;6.90;;;2.38;;
61962;SDS011;47927;42.646;23.096;2022-10-31T14:56:21;5.35;;;2.13;;
61962;SDS011;47927;42.646;23.096;2022-10-31T14:58:51;8.10;;;2.20;;
61962;SDS011;47927;42.646;23.096;2022-10-31T15:01:31;11.98;;;2.45;;
61962;SDS011;47927;42.646;23.096;2022-10-31T15:04:16;7.38;;;2.00;;
61962;SDS011;47927;42.646;23.096;2022-10-31T15:06:46;6.90;;;2.60;;
61962;SDS011;47927;42.646;23.096;2022-10-31T15:09:20;7.28;;;2.55;;
61962;SDS011;47927;42.646;23.096;2022-10-31T15:11:50;6.00;;;2.03;;
61962;SDS011;47927;42.646;23.096;2022-10-31T15:14:23;5.38;;;1.80;;
61962;SDS011;47927;42.646;23.096;2022-10-31T15:16:55;6.18;;;2.22;;
61962;SDS011;47927;42.646;23.096;2022-10-31T15:19:27;6.63;;;2.17;;
61962;SDS011;47927;42.646;23.096;2022-10-31T15:21:56;9.88;;;2.30;;
61962;SDS011;47927;42.646;23.096;2022-10-31T15:24:24;6.88;;;3.05;;
61962;SDS011;47927;42.646;23.096;2022-10-31T15:26:55;7.30;;;2.95;;
61962;SDS011;47927;42.646;23.096;2022-10-31T15:29:21;8.40;;;5.15;;
61962;SDS011;47927;42.646;23.096;2022-10-31T15:31:55;12.00;;;5.45;;
61962;SDS011;47927;42.646;23.096;2022-10-31T15:36:51;8.38;;;2.83;;
61962;SDS011;47927;42.646;23.096;2022-10-31T15:39:18;8.50;;;2.60;;
61962;SDS011;47927;42.646;23.096;2022-10-31T15:41:51;6.43;;;2.45;;
61962;SDS011;47927;42.646;23.096;2022-10-31T15:44:25;4.47;;;2.13;;
61962;SDS011;47927;42.646;23.096;2022-10-31T15:46:54;12.95;;;2.47;;
61962;SDS011;47927;42.646;23.096;2022-10-31T15:51:56;13.98;;;2.85;;
61962;SDS011;47927;42.646;23.096;2022-10-31T15:54:25;6.45;;;3.10;;
61962;SDS011;47927;42.646;23.096;2022-10-31T15:56:51;12.05;;;3.72;;
61962;SDS011;47927;42.646;23.096;2022-10-31T15:59:19;8.93;;;4.25;;
61962;SDS011;47927;42.646;23.096;2022-10-31T16:02:02;18.05;;;4.50;;
61962;SDS011;47927;42.646;23.096;2022-10-31T16:04:34;9.18;;;4.22;;
61962;SDS011;47927;42.646;23.096;2022-10-31T16:07:11;12.88;;;5.68;;
61962;SDS011;47927;42.646;23.096;2022-10-31T16:12:48;11.13;;;3.50;;
61962;SDS011;47927;42.646;23.096;2022-10-31T16:15:14;8.18;;;3.10;;
61962;SDS011;47927;42.646;23.096;2022-10-31T16:17:42;6.82;;;2.50;;
61962;SDS011;47927;42.646;23.096;2022-10-31T16:20:47;7.20;;;2.50;;
61962;SDS011;47927;42.646;23.096;2022-10-31T16:23:02;7.93;;;3.53;;
61962;SDS011;47927;42.646;23.096;2022-10-31T16:28:06;6.63;;;2.80;;
61962;SDS011;47927;42.646;23.096;2022-10-31T16:35:58;6.78;;;3.60;;
61962;SDS011;47927;42.646;23.096;2022-10-31T16:38:25;9.20;;;4.10;;
61962;SDS011;47927;42.646;23.096;2022-10-31T16:40:51;9.00;;;3.85;;
61962;SDS011;47927;42.646;23.096;2022-10-31T16:43:18;7.78;;;3.50;;
61962;SDS011;47927;42.646;23.096;2022-10-31T16:45:47;13.23;;;4.07;;
61962;SDS011;47927;42.646;23.096;2022-10-31T16:48:18;8.68;;;3.83;;
61962;SDS011;47927;42.646;23.096;2022-10-31T16:50:46;7.20;;;3.60;;
61962;SDS011;47927;42.646;23.096;2022-10-31T16:53:13;10.48;;;4.00;;
61962;SDS011;47927;42.646;23.096;2022-10-31T16:55:42;10.60;;;4.45;;
61962;SDS011;47927;42.646;23.096;2022-10-31T16:58:13;15.02;;;3.90;;
61962;SDS011;47927;42.646;23.096;2022-10-31T17:00:41;10.88;;;3.95;;
61962;SDS011;47927;42.646;23.096;2022-10-31T17:03:07;11.02;;;3.85;;
61962;SDS011;47927;42.646;23.096;2022-10-31T17:05:33;10.63;;;4.07;;
61962;SDS011;47927;42.646;23.096;2022-10-31T17:08:00;13.77;;;4.47;;
61962;SDS011;47927;42.646;23.096;2022-10-31T17:10:27;8.52;;;4.20;;
61962;SDS011;47927;42.646;23.096;2022-10-31T17:12:53;8.40;;;3.88;;
61962;SDS011;47927;42.646;23.096;2022-10-31T17:15:20;7.25;;;3.80;;
61962;SDS011;47927;42.646;23.096;2022-10-31T17:17:48;14.40;;;4.43;;
61962;SDS011;47927;42.646;23.096;2022-10-31T17:20:24;7.28;;;3.85;;
61962;SDS011;47927;42.646;23.096;2022-10-31T17:22:51;11.65;;;4.75;;
61962;SDS011;47927;42.646;23.096;2022-10-31T17:25:18;7.38;;;4.05;;
61962;SDS011;47927;42.646;23.096;2022-10-31T17:27:47;9.57;;;5.03;;
61962;SDS011;47927;42.646;23.096;2022-10-31T17:30:13;10.77;;;4.80;;
61962;SDS011;47927;42.646;23.096;2022-10-31T17:32:42;9.32;;;4.10;;
61962;SDS011;47927;42.646;23.096;2022-10-31T17:35:10;11.43;;;4.18;;
61962;SDS011;47927;42.646;23.096;2022-10-31T17:37:37;9.32;;;4.30;;
61962;SDS011;47927;42.646;23.096;2022-10-31T17:40:03;15.07;;;4.50;;
61962;SDS011;47927;42.646;23.096;2022-10-31T17:42:29;7.47;;;4.45;;
61962;SDS011;47927;42.646;23.096;2022-10-31T17:44:56;8.60;;;3.95;;
61962;SDS011;47927;42.646;23.096;2022-10-31T17:47:21;8.60;;;4.13;;
61962;SDS011;47927;42.646;23.096;2022-10-31T17:49:47;9.55;;;3.90;;
61962;SDS011;47927;42.646;23.096;2022-10-31T17:52:12;8.23;;;4.32;;
61962;SDS011;47927;42.646;23.096;2022-10-31T17:54:38;9.55;;;5.00;;
61962;SDS011;47927;42.646;23.096;2022-10-31T17:57:03;12.52;;;4.95;;